AAL501 KPHL-KTPA
Flight info
| Callsign | AAL501 |
|---|---|
| Flight time | 2h 9m |
| Altitude | 36000 |
| Route | STOEN Q75 ILBEE Q75 TEUFL BAAMF DADES2 |
| Aircraft | B738/M-SDE2E3FGHIRWXY/LB1 |
Departure
| Time | 2026-05-06 23:13 |
|---|---|
| Airport | Philadelphia International Airport (KPHL) |
Arrival
| Time | 2026-05-07 01:22 |
|---|---|
| Airport | Tampa International Airport (KTPA) |
| Time | Latitude | Longitude | Altitude | Speed | Heading |
|---|---|---|---|---|---|
| 2026-05-06 22:49 | 39.87349 | -75.24673 | 24 ft | 0 kts | 271° |
| 2026-05-06 23:03 | 39.87348 | -75.24650 | 25 ft | 4 kts | 268° |
| 2026-05-06 23:03 | 39.87351 | -75.24616 | 25 ft | 4 kts | 252° |
| 2026-05-06 23:03 | 39.87364 | -75.24587 | 28 ft | 4 kts | 218° |
| 2026-05-06 23:03 | 39.87386 | -75.24577 | 28 ft | 3 kts | 170° |
| 2026-05-06 23:04 | 39.87394 | -75.24579 | 27 ft | 0 kts | 167° |
| 2026-05-06 23:08 | 39.87388 | -75.24577 | 28 ft | 4 kts | 167° |
| 2026-05-06 23:08 | 39.87329 | -75.24559 | 26 ft | 11 kts | 166° |
| 2026-05-06 23:09 | 39.87252 | -75.24534 | 26 ft | 11 kts | 166° |
| 2026-05-06 23:09 | 39.87203 | -75.24470 | 25 ft | 11 kts | 87° |
| 2026-05-06 23:09 | 39.87224 | -75.24356 | 26 ft | 17 kts | 75° |
| 2026-05-06 23:09 | 39.87254 | -75.24206 | 25 ft | 12 kts | 79° |
| 2026-05-06 23:10 | 39.87205 | -75.24133 | 25 ft | 12 kts | 152° |
| 2026-05-06 23:10 | 39.87100 | -75.24082 | 26 ft | 20 kts | 165° |
| 2026-05-06 23:10 | 39.86952 | -75.24033 | 26 ft | 17 kts | 166° |
| 2026-05-06 23:10 | 39.86910 | -75.23936 | 24 ft | 14 kts | 77° |
| 2026-05-06 23:11 | 39.86937 | -75.23804 | 24 ft | 18 kts | 75° |
| 2026-05-06 23:11 | 39.86976 | -75.23609 | 28 ft | 25 kts | 75° |
| 2026-05-06 23:11 | 39.87003 | -75.23454 | 29 ft | 11 kts | 95° |
| 2026-05-06 23:11 | 39.86939 | -75.23406 | 28 ft | 11 kts | 166° |
| 2026-05-06 23:12 | 39.86896 | -75.23431 | 28 ft | 8 kts | 256° |
| 2026-05-06 23:12 | 39.86882 | -75.23506 | 28 ft | 14 kts | 256° |
| 2026-05-06 23:12 | 39.86795 | -75.23942 | 27 ft | 86 kts | 255° |
| 2026-05-06 23:12 | 39.86582 | -75.24977 | 32 ft | 147 kts | 253° |
| 2026-05-06 23:13 | 39.86303 | -75.26314 | 610 ft | 157 kts | 251° |
| 2026-05-06 23:13 | 39.86054 | -75.27684 | 1390 ft | 155 kts | 252° |
| 2026-05-06 23:13 | 39.85852 | -75.29184 | 1874 ft | 181 kts | 253° |
| 2026-05-06 23:13 | 39.85602 | -75.30920 | 2097 ft | 208 kts | 253° |
| 2026-05-06 23:14 | 39.85305 | -75.32846 | 2385 ft | 229 kts | 255° |
| 2026-05-06 23:14 | 39.85159 | -75.34960 | 2873 ft | 244 kts | 263° |
| 2026-05-06 23:14 | 39.85113 | -75.37144 | 3887 ft | 239 kts | 264° |
| 2026-05-06 23:14 | 39.85078 | -75.39282 | 4907 ft | 235 kts | 264° |
| 2026-05-06 23:15 | 39.85035 | -75.41437 | 5697 ft | 241 kts | 265° |
| 2026-05-06 23:15 | 39.84983 | -75.43629 | 6507 ft | 245 kts | 265° |
| 2026-05-06 23:15 | 39.84924 | -75.45863 | 7338 ft | 248 kts | 265° |
| 2026-05-06 23:15 | 39.84857 | -75.48120 | 8195 ft | 251 kts | 265° |
| 2026-05-06 23:16 | 39.84790 | -75.50405 | 8984 ft | 254 kts | 266° |
| 2026-05-06 23:16 | 39.84717 | -75.52726 | 9700 ft | 258 kts | 266° |
| 2026-05-06 23:16 | 39.84643 | -75.55065 | 9993 ft | 257 kts | 266° |
| 2026-05-06 23:16 | 39.84568 | -75.57381 | 9998 ft | 258 kts | 266° |
| 2026-05-06 23:17 | 39.84489 | -75.59722 | 10008 ft | 260 kts | 266° |
| 2026-05-06 23:17 | 39.84411 | -75.62051 | 10011 ft | 259 kts | 266° |
| 2026-05-06 23:17 | 39.84334 | -75.64397 | 10028 ft | 262 kts | 266° |
| 2026-05-06 23:17 | 39.84250 | -75.66852 | 10253 ft | 283 kts | 266° |
| 2026-05-06 23:18 | 39.84158 | -75.69521 | 10416 ft | 307 kts | 266° |
| 2026-05-06 23:18 | 39.84059 | -75.72392 | 10573 ft | 328 kts | 266° |
| 2026-05-06 23:18 | 39.83953 | -75.75428 | 10879 ft | 341 kts | 265° |
| 2026-05-06 23:18 | 39.83540 | -75.78484 | 11467 ft | 346 kts | 253° |
| 2026-05-06 23:19 | 39.82636 | -75.81399 | 12108 ft | 351 kts | 244° |
| 2026-05-06 23:19 | 39.81293 | -75.84072 | 12831 ft | 354 kts | 234° |
| 2026-05-06 23:19 | 39.79736 | -75.86576 | 13512 ft | 358 kts | 232° |
| 2026-05-06 23:19 | 39.78132 | -75.89080 | 14134 ft | 362 kts | 232° |
| 2026-05-06 23:20 | 39.76505 | -75.91613 | 14764 ft | 366 kts | 232° |
| 2026-05-06 23:20 | 39.74878 | -75.94161 | 15426 ft | 368 kts | 233° |
| 2026-05-06 23:20 | 39.73241 | -75.96740 | 16083 ft | 371 kts | 233° |
| 2026-05-06 23:20 | 39.71590 | -75.99353 | 16701 ft | 375 kts | 233° |
| 2026-05-06 23:21 | 39.69934 | -76.01978 | 17297 ft | 378 kts | 233° |
| 2026-05-06 23:21 | 39.68260 | -76.04634 | 17912 ft | 381 kts | 233° |
| 2026-05-06 23:21 | 39.66596 | -76.07274 | 18456 ft | 384 kts | 233° |
| 2026-05-06 23:21 | 39.64903 | -76.09957 | 19005 ft | 386 kts | 233° |
| 2026-05-06 23:22 | 39.63196 | -76.12661 | 19570 ft | 387 kts | 233° |
| 2026-05-06 23:22 | 39.61480 | -76.15372 | 20114 ft | 389 kts | 233° |
| 2026-05-06 23:22 | 39.59758 | -76.18089 | 20665 ft | 391 kts | 233° |
| 2026-05-06 23:22 | 39.58011 | -76.20789 | 21198 ft | 392 kts | 232° |
| 2026-05-06 23:23 | 39.56234 | -76.23502 | 21685 ft | 395 kts | 232° |
| 2026-05-06 23:23 | 39.54447 | -76.26222 | 22169 ft | 397 kts | 232° |
| 2026-05-06 23:23 | 39.52656 | -76.28952 | 22648 ft | 399 kts | 232° |
| 2026-05-06 23:23 | 39.50856 | -76.31700 | 23123 ft | 401 kts | 232° |
| 2026-05-06 23:24 | 39.49048 | -76.34460 | 23541 ft | 403 kts | 232° |
| 2026-05-06 23:24 | 39.47227 | -76.37235 | 23930 ft | 405 kts | 232° |
| 2026-05-06 23:24 | 39.45344 | -76.39966 | 24284 ft | 409 kts | 230° |
| 2026-05-06 23:24 | 39.43349 | -76.42625 | 24618 ft | 412 kts | 229° |
| 2026-05-06 23:25 | 39.41322 | -76.45261 | 24950 ft | 415 kts | 229° |
| 2026-05-06 23:25 | 39.39296 | -76.47880 | 25274 ft | 417 kts | 229° |
| 2026-05-06 23:25 | 39.37242 | -76.50536 | 25598 ft | 419 kts | 229° |
| 2026-05-06 23:25 | 39.35182 | -76.53208 | 25927 ft | 421 kts | 229° |
| 2026-05-06 23:26 | 39.33114 | -76.55897 | 26232 ft | 423 kts | 229° |
| 2026-05-06 23:26 | 39.31044 | -76.58596 | 26529 ft | 425 kts | 229° |
| 2026-05-06 23:26 | 39.28961 | -76.61311 | 26810 ft | 426 kts | 230° |
| 2026-05-06 23:26 | 39.26869 | -76.64037 | 27117 ft | 428 kts | 230° |
| 2026-05-06 23:27 | 39.24768 | -76.66774 | 27389 ft | 430 kts | 230° |
| 2026-05-06 23:27 | 39.22663 | -76.69514 | 27662 ft | 432 kts | 230° |
| 2026-05-06 23:27 | 39.20549 | -76.72260 | 28066 ft | 430 kts | 230° |
| 2026-05-06 23:27 | 39.18447 | -76.74986 | 28552 ft | 427 kts | 230° |
| 2026-05-06 23:28 | 39.16355 | -76.77699 | 28947 ft | 426 kts | 230° |
| 2026-05-06 23:28 | 39.14266 | -76.80407 | 29347 ft | 427 kts | 230° |
| 2026-05-06 23:28 | 39.12175 | -76.83116 | 29793 ft | 425 kts | 231° |
| 2026-05-06 23:28 | 39.10101 | -76.85799 | 30222 ft | 422 kts | 231° |
| 2026-05-06 23:29 | 39.08037 | -76.88466 | 30609 ft | 421 kts | 231° |
| 2026-05-06 23:29 | 39.05979 | -76.91125 | 30946 ft | 419 kts | 231° |
| 2026-05-06 23:29 | 39.03914 | -76.93793 | 31319 ft | 417 kts | 231° |
| 2026-05-06 23:29 | 39.01870 | -76.96429 | 31684 ft | 416 kts | 232° |
| 2026-05-06 23:30 | 38.99817 | -76.99072 | 32042 ft | 415 kts | 232° |
| 2026-05-06 23:30 | 38.97791 | -77.01680 | 32390 ft | 413 kts | 232° |
| 2026-05-06 23:30 | 38.95753 | -77.04300 | 32751 ft | 412 kts | 232° |
| 2026-05-06 23:30 | 38.93735 | -77.06891 | 33200 ft | 408 kts | 232° |
| 2026-05-06 23:31 | 38.91751 | -77.09437 | 33506 ft | 408 kts | 233° |
| 2026-05-06 23:31 | 38.89750 | -77.12002 | 33761 ft | 410 kts | 233° |
| 2026-05-06 23:31 | 38.87702 | -77.14626 | 34121 ft | 406 kts | 233° |
| 2026-05-06 23:31 | 38.85730 | -77.17153 | 34445 ft | 404 kts | 233° |
| 2026-05-06 23:32 | 38.83751 | -77.19691 | 34597 ft | 406 kts | 233° |
| 2026-05-06 23:32 | 38.81714 | -77.22303 | 34785 ft | 407 kts | 233° |
| 2026-05-06 23:32 | 38.79755 | -77.24812 | 35036 ft | 405 kts | 233° |
| 2026-05-06 23:32 | 38.77756 | -77.27359 | 35336 ft | 404 kts | 233° |
| 2026-05-06 23:33 | 38.75759 | -77.29899 | 35566 ft | 404 kts | 234° |
| 2026-05-06 23:33 | 38.73771 | -77.32443 | 35793 ft | 403 kts | 234° |
| 2026-05-06 23:33 | 38.71739 | -77.34966 | 35798 ft | 407 kts | 232° |
| 2026-05-06 23:34 | 38.67534 | -77.39836 | 35857 ft | 407 kts | 231° |
| 2026-05-06 23:34 | 38.63325 | -77.44640 | 35854 ft | 403 kts | 232° |
| 2026-05-06 23:35 | 38.59163 | -77.49417 | 35856 ft | 400 kts | 232° |
| 2026-05-06 23:35 | 38.55053 | -77.54149 | 35861 ft | 399 kts | 232° |
| 2026-05-06 23:36 | 38.50924 | -77.58900 | 35874 ft | 398 kts | 232° |
| 2026-05-06 23:36 | 38.46801 | -77.63632 | 35871 ft | 399 kts | 232° |
| 2026-05-06 23:37 | 38.42668 | -77.68372 | 35876 ft | 399 kts | 232° |
| 2026-05-06 23:37 | 38.38524 | -77.73120 | 35865 ft | 400 kts | 232° |
| 2026-05-06 23:38 | 38.35078 | -77.77058 | 35872 ft | 400 kts | 232° |
| 2026-05-06 23:38 | 38.30237 | -77.82573 | 35876 ft | 402 kts | 232° |
| 2026-05-06 23:39 | 38.26076 | -77.87325 | 35886 ft | 403 kts | 232° |
| 2026-05-06 23:39 | 38.22581 | -77.91310 | 35881 ft | 404 kts | 232° |
| 2026-05-06 23:40 | 38.18384 | -77.96078 | 35886 ft | 404 kts | 232° |
| 2026-05-06 23:40 | 38.14218 | -78.00802 | 35885 ft | 404 kts | 232° |
| 2026-05-06 23:41 | 38.10004 | -78.05567 | 35864 ft | 406 kts | 231° |
| 2026-05-06 23:41 | 38.05827 | -78.10352 | 35860 ft | 407 kts | 231° |
| 2026-05-06 23:41 | 38.03725 | -78.12680 | 35787 ft | 394 kts | 232° |
| 2026-05-06 23:42 | 38.01639 | -78.14879 | 35805 ft | 383 kts | 232° |
| 2026-05-06 23:42 | 37.97605 | -78.19091 | 35876 ft | 370 kts | 230° |
| 2026-05-06 23:43 | 37.93550 | -78.22989 | 35879 ft | 369 kts | 229° |
| 2026-05-06 23:43 | 37.89394 | -78.26852 | 35990 ft | 372 kts | 229° |
| 2026-05-06 23:43 | 37.87320 | -78.28789 | 36327 ft | 370 kts | 230° |
| 2026-05-06 23:44 | 37.85261 | -78.30722 | 36645 ft | 368 kts | 230° |
| 2026-05-06 23:44 | 37.83214 | -78.32655 | 36917 ft | 367 kts | 230° |
| 2026-05-06 23:44 | 37.81173 | -78.34591 | 37182 ft | 366 kts | 230° |
| 2026-05-06 23:44 | 37.79138 | -78.36524 | 37427 ft | 365 kts | 231° |
| 2026-05-06 23:45 | 37.77112 | -78.38449 | 37681 ft | 365 kts | 231° |
| 2026-05-06 23:45 | 37.75084 | -78.40372 | 37895 ft | 364 kts | 231° |
| 2026-05-06 23:45 | 37.73046 | -78.42310 | 37875 ft | 368 kts | 231° |
| 2026-05-06 23:46 | 37.68907 | -78.46243 | 37881 ft | 376 kts | 230° |
| 2026-05-06 23:46 | 37.64684 | -78.50245 | 37907 ft | 383 kts | 230° |
| 2026-05-06 23:47 | 37.60395 | -78.54293 | 37896 ft | 386 kts | 230° |
| 2026-05-06 23:47 | 37.56088 | -78.58349 | 37900 ft | 387 kts | 230° |
| 2026-05-06 23:48 | 37.51770 | -78.62412 | 37892 ft | 387 kts | 230° |
| 2026-05-06 23:48 | 37.47464 | -78.66459 | 37903 ft | 386 kts | 230° |
| 2026-05-06 23:49 | 37.43173 | -78.70487 | 37894 ft | 384 kts | 230° |
| 2026-05-06 23:49 | 37.38913 | -78.74483 | 37904 ft | 384 kts | 230° |
| 2026-05-06 23:50 | 37.34638 | -78.78489 | 37905 ft | 383 kts | 230° |
| 2026-05-06 23:50 | 37.28233 | -78.84479 | 37917 ft | 382 kts | 230° |
| 2026-05-06 23:51 | 37.23969 | -78.88457 | 37914 ft | 382 kts | 230° |
| 2026-05-06 23:51 | 37.19709 | -78.92427 | 37915 ft | 381 kts | 230° |
| 2026-05-06 23:52 | 37.15481 | -78.96363 | 37917 ft | 381 kts | 230° |
| 2026-05-06 23:52 | 37.11221 | -79.00320 | 37910 ft | 381 kts | 230° |
| 2026-05-06 23:53 | 37.06958 | -79.04270 | 37912 ft | 381 kts | 230° |
| 2026-05-06 23:53 | 37.02701 | -79.08212 | 37910 ft | 381 kts | 230° |
| 2026-05-06 23:54 | 36.98446 | -79.12146 | 37914 ft | 381 kts | 230° |
| 2026-05-06 23:54 | 36.94184 | -79.16084 | 37900 ft | 381 kts | 230° |
| 2026-05-06 23:55 | 36.89911 | -79.20025 | 37919 ft | 381 kts | 230° |
| 2026-05-06 23:55 | 36.85637 | -79.23961 | 37899 ft | 381 kts | 230° |
| 2026-05-06 23:56 | 36.81372 | -79.27883 | 37928 ft | 381 kts | 230° |
| 2026-05-06 23:56 | 36.77127 | -79.31782 | 37932 ft | 381 kts | 230° |
| 2026-05-06 23:57 | 36.72851 | -79.35703 | 37933 ft | 381 kts | 230° |
| 2026-05-06 23:57 | 36.68578 | -79.39615 | 37946 ft | 380 kts | 230° |
| 2026-05-06 23:58 | 36.64318 | -79.43511 | 37953 ft | 380 kts | 230° |
| 2026-05-06 23:58 | 36.60056 | -79.47405 | 37950 ft | 379 kts | 230° |
| 2026-05-06 23:59 | 36.55802 | -79.51284 | 37925 ft | 379 kts | 230° |
| 2026-05-06 23:59 | 36.51547 | -79.55159 | 37924 ft | 379 kts | 230° |
| 2026-05-07 00:00 | 36.47297 | -79.59023 | 37937 ft | 378 kts | 230° |
| 2026-05-07 00:00 | 36.43054 | -79.62877 | 37943 ft | 378 kts | 230° |
| 2026-05-07 00:01 | 36.38811 | -79.66726 | 37947 ft | 378 kts | 229° |
| 2026-05-07 00:01 | 36.34586 | -79.70553 | 37945 ft | 378 kts | 229° |
| 2026-05-07 00:02 | 36.30312 | -79.74420 | 37941 ft | 378 kts | 229° |
| 2026-05-07 00:02 | 36.26053 | -79.78266 | 37941 ft | 378 kts | 229° |
| 2026-05-07 00:03 | 36.21800 | -79.82105 | 37949 ft | 378 kts | 229° |
| 2026-05-07 00:03 | 36.17543 | -79.85947 | 37947 ft | 379 kts | 230° |
| 2026-05-07 00:04 | 36.13308 | -79.89765 | 37952 ft | 379 kts | 230° |
| 2026-05-07 00:04 | 36.09047 | -79.93600 | 37950 ft | 378 kts | 230° |
| 2026-05-07 00:05 | 36.04707 | -79.97328 | 37944 ft | 387 kts | 224° |
| 2026-05-07 00:05 | 36.02260 | -79.98841 | 37940 ft | 401 kts | 217° |
| 2026-05-07 00:05 | 35.99659 | -80.00122 | 37949 ft | 402 kts | 217° |
| 2026-05-07 00:06 | 35.94472 | -80.02646 | 37946 ft | 403 kts | 217° |
| 2026-05-07 00:06 | 35.89254 | -80.05195 | 37939 ft | 402 kts | 217° |
| 2026-05-07 00:07 | 35.84053 | -80.07751 | 37955 ft | 403 kts | 217° |
| 2026-05-07 00:07 | 35.78840 | -80.10318 | 37965 ft | 404 kts | 217° |
| 2026-05-07 00:08 | 35.73614 | -80.12889 | 37960 ft | 405 kts | 217° |
| 2026-05-07 00:08 | 35.68377 | -80.15461 | 37972 ft | 406 kts | 217° |
| 2026-05-07 00:09 | 35.63156 | -80.18025 | 37972 ft | 407 kts | 217° |
| 2026-05-07 00:09 | 35.57890 | -80.20604 | 38002 ft | 408 kts | 217° |
| 2026-05-07 00:10 | 35.52583 | -80.23199 | 38003 ft | 408 kts | 216° |
| 2026-05-07 00:10 | 35.47332 | -80.25761 | 38006 ft | 409 kts | 216° |
| 2026-05-07 00:11 | 35.42047 | -80.28338 | 38003 ft | 410 kts | 216° |
| 2026-05-07 00:11 | 35.36744 | -80.30922 | 38001 ft | 410 kts | 216° |
| 2026-05-07 00:12 | 35.31431 | -80.33501 | 37985 ft | 412 kts | 216° |
| 2026-05-07 00:12 | 35.26109 | -80.36093 | 37995 ft | 412 kts | 216° |
| 2026-05-07 00:13 | 35.20813 | -80.38714 | 37967 ft | 410 kts | 216° |
| 2026-05-07 00:13 | 35.15829 | -80.41113 | 37961 ft | 411 kts | 216° |
| 2026-05-07 00:14 | 35.10493 | -80.43666 | 37963 ft | 413 kts | 216° |
| 2026-05-07 00:14 | 35.05150 | -80.46238 | 37963 ft | 414 kts | 216° |
| 2026-05-07 00:15 | 34.99779 | -80.48825 | 37966 ft | 415 kts | 215° |
| 2026-05-07 00:15 | 34.94427 | -80.51402 | 37960 ft | 416 kts | 215° |
| 2026-05-07 00:16 | 34.89034 | -80.53995 | 37962 ft | 417 kts | 215° |
| 2026-05-07 00:16 | 34.83626 | -80.56591 | 37971 ft | 418 kts | 215° |
| 2026-05-07 00:17 | 34.78198 | -80.59194 | 37965 ft | 420 kts | 215° |
| 2026-05-07 00:17 | 34.72761 | -80.61797 | 37964 ft | 420 kts | 214° |
| 2026-05-07 00:18 | 34.67313 | -80.64419 | 37965 ft | 418 kts | 217° |
| 2026-05-07 00:18 | 34.64771 | -80.66016 | 37968 ft | 406 kts | 224° |
| 2026-05-07 00:18 | 34.62471 | -80.67936 | 37956 ft | 395 kts | 231° |
| 2026-05-07 00:19 | 34.58425 | -80.72349 | 37960 ft | 391 kts | 233° |
| 2026-05-07 00:19 | 34.54386 | -80.76796 | 37974 ft | 393 kts | 233° |
| 2026-05-07 00:20 | 34.50310 | -80.81238 | 37973 ft | 393 kts | 233° |
| 2026-05-07 00:20 | 34.46220 | -80.85671 | 37964 ft | 394 kts | 233° |
| 2026-05-07 00:21 | 34.42154 | -80.90071 | 37952 ft | 394 kts | 233° |
| 2026-05-07 00:21 | 34.38059 | -80.94495 | 37958 ft | 394 kts | 233° |
| 2026-05-07 00:22 | 34.33959 | -80.98908 | 37950 ft | 396 kts | 231° |
| 2026-05-07 00:22 | 34.31685 | -81.00874 | 37969 ft | 407 kts | 224° |
| 2026-05-07 00:22 | 34.29170 | -81.02555 | 37956 ft | 418 kts | 218° |
| 2026-05-07 00:23 | 34.24542 | -81.04594 | 37967 ft | 431 kts | 211° |
| 2026-05-07 00:23 | 34.18796 | -81.06749 | 37954 ft | 432 kts | 210° |
| 2026-05-07 00:24 | 34.13049 | -81.08903 | 37955 ft | 432 kts | 211° |
| 2026-05-07 00:24 | 34.07314 | -81.11083 | 37950 ft | 433 kts | 211° |
| 2026-05-07 00:25 | 34.01569 | -81.13279 | 37943 ft | 433 kts | 211° |
| 2026-05-07 00:25 | 33.95825 | -81.15478 | 37942 ft | 433 kts | 211° |
| 2026-05-07 00:26 | 33.90113 | -81.17661 | 37953 ft | 433 kts | 211° |
| 2026-05-07 00:26 | 33.84365 | -81.19853 | 37948 ft | 433 kts | 211° |
| 2026-05-07 00:27 | 33.78619 | -81.22041 | 37956 ft | 433 kts | 211° |
| 2026-05-07 00:27 | 33.72871 | -81.24229 | 37958 ft | 433 kts | 211° |
| 2026-05-07 00:28 | 33.67113 | -81.26419 | 37947 ft | 434 kts | 211° |
| 2026-05-07 00:28 | 33.61364 | -81.28600 | 37945 ft | 432 kts | 211° |
| 2026-05-07 00:29 | 33.55625 | -81.30777 | 37954 ft | 433 kts | 211° |
| 2026-05-07 00:30 | 33.44110 | -81.35128 | 37973 ft | 434 kts | 211° |
| 2026-05-07 00:30 | 33.38384 | -81.37289 | 37984 ft | 435 kts | 210° |
| 2026-05-07 00:31 | 33.32612 | -81.39461 | 37997 ft | 435 kts | 210° |
| 2026-05-07 00:31 | 33.26833 | -81.41650 | 37988 ft | 434 kts | 211° |
| 2026-05-07 00:32 | 33.21157 | -81.44051 | 37984 ft | 431 kts | 213° |
| 2026-05-07 00:32 | 33.15517 | -81.46519 | 37984 ft | 432 kts | 212° |
| 2026-05-07 00:33 | 33.09854 | -81.48958 | 37974 ft | 433 kts | 212° |
| 2026-05-07 00:33 | 33.04180 | -81.51379 | 37975 ft | 433 kts | 212° |
| 2026-05-07 00:34 | 32.98492 | -81.53799 | 37975 ft | 433 kts | 212° |
| 2026-05-07 00:34 | 32.92823 | -81.56208 | 37973 ft | 433 kts | 211° |
| 2026-05-07 00:35 | 32.87173 | -81.58674 | 37991 ft | 431 kts | 212° |
| 2026-05-07 00:35 | 32.81615 | -81.61212 | 38003 ft | 430 kts | 213° |
| 2026-05-07 00:36 | 32.76018 | -81.63766 | 38009 ft | 430 kts | 212° |
| 2026-05-07 00:36 | 32.70427 | -81.66300 | 38013 ft | 430 kts | 212° |
| 2026-05-07 00:37 | 32.64829 | -81.68829 | 38018 ft | 430 kts | 212° |
| 2026-05-07 00:37 | 32.59232 | -81.71352 | 38005 ft | 430 kts | 211° |
| 2026-05-07 00:38 | 32.53636 | -81.73872 | 37976 ft | 430 kts | 211° |
| 2026-05-07 00:38 | 32.48040 | -81.76387 | 37978 ft | 431 kts | 211° |
| 2026-05-07 00:39 | 32.42466 | -81.78889 | 37979 ft | 431 kts | 211° |
| 2026-05-07 00:39 | 32.36858 | -81.81404 | 37978 ft | 431 kts | 211° |
| 2026-05-07 00:40 | 32.31243 | -81.83919 | 37998 ft | 431 kts | 210° |
| 2026-05-07 00:40 | 32.25636 | -81.86428 | 38000 ft | 432 kts | 210° |
| 2026-05-07 00:41 | 32.19998 | -81.88947 | 37999 ft | 432 kts | 210° |
| 2026-05-07 00:41 | 32.14360 | -81.91456 | 38000 ft | 434 kts | 209° |
| 2026-05-07 00:42 | 32.08630 | -81.93682 | 37997 ft | 437 kts | 206° |
| 2026-05-07 00:42 | 32.02808 | -81.95801 | 38004 ft | 438 kts | 206° |
| 2026-05-07 00:43 | 31.97001 | -81.97950 | 38006 ft | 437 kts | 206° |
| 2026-05-07 00:43 | 31.91196 | -82.00121 | 38003 ft | 438 kts | 206° |
| 2026-05-07 00:44 | 31.85351 | -82.02205 | 38002 ft | 443 kts | 202° |
| 2026-05-07 00:44 | 31.79315 | -82.03766 | 38010 ft | 445 kts | 200° |
| 2026-05-07 00:45 | 31.73241 | -82.05238 | 38017 ft | 445 kts | 200° |
| 2026-05-07 00:45 | 31.67179 | -82.06731 | 38028 ft | 445 kts | 200° |
| 2026-05-07 00:46 | 31.61122 | -82.08249 | 38030 ft | 445 kts | 200° |
| 2026-05-07 00:46 | 31.55096 | -82.09766 | 38034 ft | 446 kts | 200° |
| 2026-05-07 00:47 | 31.49028 | -82.11292 | 38025 ft | 446 kts | 200° |
| 2026-05-07 00:47 | 31.42944 | -82.12818 | 38023 ft | 447 kts | 200° |
| 2026-05-07 00:48 | 31.36861 | -82.14342 | 38013 ft | 447 kts | 200° |
| 2026-05-07 00:48 | 31.30774 | -82.15864 | 38017 ft | 448 kts | 200° |
| 2026-05-07 00:49 | 31.24675 | -82.17388 | 38020 ft | 448 kts | 200° |
| 2026-05-07 00:49 | 31.18573 | -82.18911 | 38024 ft | 448 kts | 200° |
| 2026-05-07 00:50 | 31.12458 | -82.20434 | 38036 ft | 449 kts | 200° |
| 2026-05-07 00:50 | 31.06344 | -82.21956 | 38047 ft | 449 kts | 200° |
| 2026-05-07 00:51 | 31.00244 | -82.23473 | 38074 ft | 451 kts | 200° |
| 2026-05-07 00:51 | 30.94113 | -82.24993 | 38087 ft | 450 kts | 200° |
| 2026-05-07 00:52 | 30.87987 | -82.26509 | 38121 ft | 450 kts | 201° |
| 2026-05-07 00:52 | 30.81869 | -82.28050 | 38142 ft | 451 kts | 200° |
| 2026-05-07 00:53 | 30.75688 | -82.29549 | 38124 ft | 453 kts | 200° |
| 2026-05-07 00:53 | 30.69544 | -82.31112 | 38128 ft | 451 kts | 200° |
| 2026-05-07 00:54 | 30.63351 | -82.32397 | 38134 ft | 454 kts | 196° |
| 2026-05-07 00:54 | 30.57019 | -82.33148 | 38127 ft | 458 kts | 194° |
| 2026-05-07 00:55 | 30.50700 | -82.33757 | 38138 ft | 455 kts | 194° |
| 2026-05-07 00:55 | 30.44401 | -82.34498 | 38123 ft | 454 kts | 195° |
| 2026-05-07 00:56 | 30.38111 | -82.35308 | 38114 ft | 455 kts | 195° |
| 2026-05-07 00:56 | 30.31802 | -82.36117 | 38103 ft | 456 kts | 195° |
| 2026-05-07 00:57 | 30.25529 | -82.36909 | 38098 ft | 457 kts | 195° |
| 2026-05-07 00:57 | 30.19190 | -82.37693 | 38080 ft | 458 kts | 195° |
| 2026-05-07 00:58 | 30.12749 | -82.37981 | 38086 ft | 469 kts | 186° |
| 2026-05-07 00:58 | 30.06204 | -82.37503 | 38086 ft | 472 kts | 184° |
| 2026-05-07 00:59 | 29.96369 | -82.36796 | 38084 ft | 471 kts | 186° |
| 2026-05-07 01:00 | 29.89814 | -82.36421 | 38079 ft | 471 kts | 186° |
| 2026-05-07 01:00 | 29.86575 | -82.36246 | 37845 ft | 475 kts | 186° |
| 2026-05-07 01:00 | 29.83269 | -82.36069 | 37266 ft | 477 kts | 185° |
| 2026-05-07 01:00 | 29.79950 | -82.35886 | 36635 ft | 475 kts | 185° |
| 2026-05-07 01:01 | 29.76660 | -82.35702 | 36012 ft | 474 kts | 185° |
| 2026-05-07 01:01 | 29.73358 | -82.35519 | 35320 ft | 475 kts | 185° |
| 2026-05-07 01:01 | 29.70041 | -82.35336 | 34579 ft | 478 kts | 185° |
| 2026-05-07 01:01 | 29.66716 | -82.35153 | 33792 ft | 481 kts | 185° |
| 2026-05-07 01:02 | 29.63355 | -82.34967 | 32948 ft | 483 kts | 185° |
| 2026-05-07 01:02 | 29.59995 | -82.34781 | 32135 ft | 484 kts | 185° |
| 2026-05-07 01:02 | 29.56626 | -82.34593 | 31308 ft | 485 kts | 185° |
| 2026-05-07 01:02 | 29.53245 | -82.34407 | 30429 ft | 487 kts | 185° |
| 2026-05-07 01:03 | 29.49868 | -82.34221 | 29445 ft | 489 kts | 185° |
| 2026-05-07 01:03 | 29.46482 | -82.34031 | 28762 ft | 483 kts | 185° |
| 2026-05-07 01:03 | 29.43149 | -82.33844 | 28085 ft | 477 kts | 185° |
| 2026-05-07 01:03 | 29.39841 | -82.33655 | 27428 ft | 472 kts | 184° |
| 2026-05-07 01:04 | 29.36589 | -82.33355 | 26791 ft | 468 kts | 181° |
| 2026-05-07 01:04 | 29.33362 | -82.32966 | 26166 ft | 464 kts | 180° |
| 2026-05-07 01:04 | 29.30154 | -82.32549 | 25537 ft | 463 kts | 180° |
| 2026-05-07 01:04 | 29.26983 | -82.32137 | 24890 ft | 465 kts | 180° |
| 2026-05-07 01:05 | 29.23741 | -82.31725 | 24235 ft | 461 kts | 180° |
| 2026-05-07 01:05 | 29.20578 | -82.31332 | 23572 ft | 456 kts | 180° |
| 2026-05-07 01:05 | 29.17463 | -82.30953 | 22842 ft | 452 kts | 180° |
| 2026-05-07 01:05 | 29.14355 | -82.30580 | 22185 ft | 446 kts | 179° |
| 2026-05-07 01:06 | 29.11288 | -82.30215 | 21552 ft | 440 kts | 179° |
| 2026-05-07 01:06 | 29.08261 | -82.29856 | 20926 ft | 436 kts | 179° |
| 2026-05-07 01:06 | 29.05258 | -82.29500 | 20314 ft | 431 kts | 178° |
| 2026-05-07 01:06 | 29.02296 | -82.29149 | 19695 ft | 427 kts | 178° |
| 2026-05-07 01:07 | 28.99358 | -82.28803 | 19070 ft | 423 kts | 177° |
| 2026-05-07 01:07 | 28.96435 | -82.28458 | 18464 ft | 421 kts | 177° |
| 2026-05-07 01:07 | 28.93536 | -82.28115 | 17780 ft | 418 kts | 177° |
| 2026-05-07 01:07 | 28.90651 | -82.27774 | 17098 ft | 416 kts | 176° |
| 2026-05-07 01:08 | 28.87771 | -82.27432 | 16470 ft | 412 kts | 176° |
| 2026-05-07 01:08 | 28.84938 | -82.27096 | 15858 ft | 408 kts | 176° |
| 2026-05-07 01:08 | 28.82122 | -82.26763 | 15237 ft | 404 kts | 176° |
| 2026-05-07 01:08 | 28.79336 | -82.26434 | 14631 ft | 401 kts | 176° |
| 2026-05-07 01:09 | 28.76570 | -82.26108 | 14025 ft | 398 kts | 176° |
| 2026-05-07 01:09 | 28.73821 | -82.25789 | 13352 ft | 395 kts | 177° |
| 2026-05-07 01:09 | 28.71067 | -82.25656 | 12458 ft | 397 kts | 181° |
| 2026-05-07 01:09 | 28.68317 | -82.25658 | 11786 ft | 393 kts | 181° |
| 2026-05-07 01:10 | 28.65595 | -82.25656 | 11241 ft | 387 kts | 181° |
| 2026-05-07 01:10 | 28.62941 | -82.25632 | 10853 ft | 376 kts | 181° |
| 2026-05-07 01:10 | 28.61231 | -82.25602 | 10795 ft | 364 kts | 180° |
| 2026-05-07 01:10 | 28.58749 | -82.25552 | 10649 ft | 349 kts | 180° |
| 2026-05-07 01:11 | 28.56366 | -82.25503 | 10512 ft | 336 kts | 180° |
| 2026-05-07 01:11 | 28.54075 | -82.25457 | 10374 ft | 323 kts | 180° |
| 2026-05-07 01:11 | 28.51861 | -82.25416 | 10246 ft | 312 kts | 181° |
| 2026-05-07 01:11 | 28.49730 | -82.25388 | 10126 ft | 301 kts | 181° |
| 2026-05-07 01:12 | 28.47670 | -82.25362 | 9987 ft | 292 kts | 181° |
| 2026-05-07 01:12 | 28.45640 | -82.25338 | 9665 ft | 290 kts | 181° |
| 2026-05-07 01:12 | 28.43628 | -82.25313 | 9361 ft | 288 kts | 180° |
| 2026-05-07 01:12 | 28.41656 | -82.25288 | 9052 ft | 286 kts | 180° |
| 2026-05-07 01:13 | 28.39644 | -82.25262 | 8744 ft | 284 kts | 180° |
| 2026-05-07 01:13 | 28.37703 | -82.25246 | 8445 ft | 282 kts | 183° |
| 2026-05-07 01:13 | 28.35824 | -82.25783 | 8132 ft | 279 kts | 207° |
| 2026-05-07 01:13 | 28.34251 | -82.27045 | 7850 ft | 277 kts | 220° |
| 2026-05-07 01:14 | 28.32790 | -82.28464 | 7550 ft | 276 kts | 220° |
| 2026-05-07 01:14 | 28.31406 | -82.29956 | 7347 ft | 272 kts | 226° |
| 2026-05-07 01:14 | 28.30163 | -82.31542 | 7119 ft | 267 kts | 229° |
| 2026-05-07 01:14 | 28.28952 | -82.33142 | 6794 ft | 268 kts | 229° |
| 2026-05-07 01:15 | 28.27736 | -82.34742 | 6508 ft | 267 kts | 228° |
| 2026-05-07 01:15 | 28.26520 | -82.36330 | 6238 ft | 266 kts | 228° |
| 2026-05-07 01:15 | 28.25317 | -82.37890 | 5960 ft | 260 kts | 227° |
| 2026-05-07 01:15 | 28.24139 | -82.39410 | 5678 ft | 252 kts | 227° |
| 2026-05-07 01:16 | 28.23000 | -82.40873 | 5431 ft | 240 kts | 226° |
| 2026-05-07 01:16 | 28.21916 | -82.42259 | 5148 ft | 232 kts | 226° |
| 2026-05-07 01:16 | 28.20852 | -82.43621 | 4885 ft | 231 kts | 226° |
| 2026-05-07 01:16 | 28.19786 | -82.44982 | 4584 ft | 232 kts | 226° |
| 2026-05-07 01:17 | 28.18703 | -82.46362 | 4233 ft | 234 kts | 226° |
| 2026-05-07 01:17 | 28.17649 | -82.47709 | 3958 ft | 228 kts | 226° |
| 2026-05-07 01:17 | 28.16621 | -82.49019 | 3693 ft | 217 kts | 226° |
| 2026-05-07 01:17 | 28.15639 | -82.50270 | 3382 ft | 208 kts | 226° |
| 2026-05-07 01:18 | 28.14675 | -82.51453 | 3042 ft | 200 kts | 218° |
| 2026-05-07 01:18 | 28.13464 | -82.52016 | 2835 ft | 183 kts | 185° |
| 2026-05-07 01:18 | 28.12215 | -82.52202 | 2606 ft | 179 kts | 189° |
| 2026-05-07 01:18 | 28.10976 | -82.52382 | 2361 ft | 181 kts | 184° |
| 2026-05-07 01:19 | 28.09725 | -82.52446 | 2134 ft | 178 kts | 182° |
| 2026-05-07 01:19 | 28.08529 | -82.52487 | 1899 ft | 166 kts | 182° |
| 2026-05-07 01:19 | 28.07413 | -82.52523 | 1709 ft | 155 kts | 184° |
| 2026-05-07 01:19 | 28.06366 | -82.52558 | 1525 ft | 150 kts | 183° |
| 2026-05-07 01:20 | 28.05316 | -82.52596 | 1313 ft | 152 kts | 184° |
| 2026-05-07 01:20 | 28.04252 | -82.52632 | 1106 ft | 151 kts | 185° |
| 2026-05-07 01:20 | 28.03221 | -82.52666 | 929 ft | 148 kts | 184° |
| 2026-05-07 01:20 | 28.02171 | -82.52703 | 735 ft | 152 kts | 185° |
| 2026-05-07 01:21 | 28.01109 | -82.52739 | 549 ft | 153 kts | 184° |
| 2026-05-07 01:21 | 28.00040 | -82.52771 | 353 ft | 153 kts | 183° |
| 2026-05-07 01:21 | 27.98998 | -82.52811 | 150 ft | 152 kts | 185° |
| 2026-05-07 01:21 | 27.97942 | -82.52853 | 38 ft | 141 kts | 181° |
| 2026-05-07 01:22 | 27.97180 | -82.52874 | 37 ft | 80 kts | 181° |
| 2026-05-07 01:22 | 27.96843 | -82.52885 | 37 ft | 23 kts | 182° |
| 2026-05-07 01:22 | 27.96702 | -82.52891 | 37 ft | 20 kts | 181° |
| 2026-05-07 01:22 | 27.96569 | -82.52896 | 36 ft | 16 kts | 184° |
| 2026-05-07 01:23 | 27.96532 | -82.52991 | 37 ft | 15 kts | 293° |
| 2026-05-07 01:23 | 27.96628 | -82.53018 | 40 ft | 15 kts | 2° |
| 2026-05-07 01:23 | 27.96727 | -82.53014 | 40 ft | 14 kts | 1° |
| 2026-05-07 01:23 | 27.96827 | -82.53011 | 40 ft | 16 kts | 2° |
| 2026-05-07 01:24 | 27.96959 | -82.53006 | 39 ft | 23 kts | 1° |
| 2026-05-07 01:24 | 27.97141 | -82.53000 | 38 ft | 27 kts | 1° |
| 2026-05-07 01:24 | 27.97269 | -82.52998 | 40 ft | 10 kts | 351° |
| 2026-05-07 01:24 | 27.97306 | -82.53063 | 41 ft | 13 kts | 272° |
| 2026-05-07 01:25 | 27.97309 | -82.53201 | 42 ft | 22 kts | 271° |
| 2026-05-07 01:25 | 27.97315 | -82.53390 | 43 ft | 25 kts | 272° |
| 2026-05-07 01:25 | 27.97334 | -82.53575 | 51 ft | 23 kts | 286° |
| 2026-05-07 01:25 | 27.97405 | -82.53735 | 49 ft | 23 kts | 302° |
| 2026-05-07 01:26 | 27.97493 | -82.53794 | 44 ft | 16 kts | 21° |
| 2026-05-07 01:26 | 27.97564 | -82.53832 | 42 ft | 10 kts | 324° |
| 2026-05-07 01:26 | 27.97607 | -82.53811 | 42 ft | 6 kts | 36° |
| 2026-05-07 01:26 | 27.97623 | -82.53798 | 41 ft | 0 kts | 36° |